Pagina principale
METAR-TAF:

Aeroporti :

Genova, Italia

Aeroporto di Genova-Sestri

latitudine: 44-25N, longitudine: 008-51E, altezza: 2 m

Osservazione

Il bollettino è stato emesso 16 minuti fa, alle 09:50 UTC
Vento 4 kt da sud, variando fra sud-est e sud-ovest
Temperature 26°C
Umidità 70%
Pressione 1016 hPa
Visibilità 10 km o più
Poco nuvoloso ad un'altezza di 2000 ft

METAR: LIMJ 290950Z 18004KT 130V220 9999 FEW020 26/20 Q1016

Ora: 12:06 (10:06 UTC)

Previsione

Il bollettino è stato emesso 5 ore e 6 minuti fa, alle 05:00 UTC
Previsione valida dal 29 alle 06 UTC al 30 alle 06 UTC
Vento 5 kt da sud/sud-est
Visibilità 10 km o più
Nubi sparse ad un'altezza di 2500 ft

TAF: LIMJ 290500Z 2906/3006 15005KT 9999 SCT025

METAR-TAF

Osservazioni e previsioni meteorologiche di più di 4000 aeroporti (messaggi METAR e TAF).

Le stazioni disponibili sono rappresentate dai dischi gialli e rossi sulla carta.

Puntare il mouse per vedere il nome della stazione.

Clicca sopra per visualizzare le osservazioni e previsioni meteorologiche.

Per cambiare la mappa : fare clic sui pulsanti verdi con una croce nera per ingrandire, il pulsante verde con un trattino per diminuire, o sulla freccia verde per le mappe adiacenti.


METAR-TAF: